Time;durP1;ratioP1;P1;durP2;ratioP2;P2;SDS_P1;SDS_P2;PMS_P1;PMS_P2;Temp;Humidity;BMP_temperature;BMP_pressure;BME280_temperature;BME280_humidity;BME280_pressure;Samples;Min_cycle;Max_cycle;Signal;HPM_P1;HPM_P2
2022/12/22 03:28:04;;;;;;;;;;;29.40;81.60;;;;;;5023279;28;20039;-70
2022/12/22 03:30:31;;;;;;;;;;;29.40;82.30;;;;;;5027958;28;19917;-70
2022/12/22 03:32:58;;;;;;;;;;;29.30;81.30;;;;;;5021835;28;20576;-70
2022/12/22 03:35:26;;;;;;;;;;;29.10;81.10;;;;;;5025160;28;19924;-71
2022/12/22 03:37:53;;;;;;;;;;;29.00;82.30;;;;;;5013731;28;20809;-72
2022/12/22 03:40:19;;;;;;;;;;;28.90;82.00;;;;;;5019805;28;19921;-72
2022/12/22 03:48:16;;;;;;;;;;;28.10;82.30;;;;;;5032223;28;19963;-72
2022/12/22 03:50:43;;;;;;;;;;;27.90;82.90;;;;;;5024869;28;19913;-70
2022/12/22 03:53:10;;;;;;;;;;;27.80;82.70;;;;;;5018417;28;19921;-70
2022/12/22 03:55:37;;;;;;;;;;;27.80;82.50;;;;;;5019739;28;20362;-69
2022/12/22 03:58:04;;;;;;;;;;;27.70;83.30;;;;;;5030249;28;19921;-69
2022/12/22 04:00:30;;;;;;;;;;;27.60;82.80;;;;;;5008335;28;19917;-70
2022/12/22 04:02:57;;;;;;;;;;;27.40;83.10;;;;;;5019016;28;19921;-70
2022/12/22 04:05:25;;;;;;;;;;;27.30;83.00;;;;;;5016659;28;19983;-71
2022/12/22 04:07:52;;;;;;;;;;;27.10;83.50;;;;;;5020993;28;20019;-70
2022/12/22 04:13:03;;;;;;;;;;;27.00;84.00;;;;;;5026184;28;20379;-70
2022/12/22 04:15:31;;;;;;;;;;;26.80;83.90;;;;;;5020582;28;19981;-69
2022/12/22 04:17:58;;;;;;;;;;;26.70;84.40;;;;;;5026893;28;20355;-68
2022/12/22 04:20:28;;;;;;;;;;;26.50;84.80;;;;;;5021201;28;19921;-70
2022/12/22 04:22:55;;;;;;;;;;;26.20;85.40;;;;;;5029166;28;19918;-71
2022/12/22 04:25:22;;;;;;;;;;;26.10;85.60;;;;;;5022829;28;20056;-70
2022/12/22 04:27:49;;;;;;;;;;;26.10;87.60;;;;;;5006959;28;19927;-69
2022/12/22 04:30:16;;;;;;;;;;;26.10;87.70;;;;;;5021002;28;19920;-70
2022/12/22 04:32:43;;;;;;;;;;;26.10;87.90;;;;;;5024515;28;19976;-70
2022/12/22 04:35:10;;;;;;;;;;;26.00;86.80;;;;;;5024888;28;19913;-69
2022/12/22 04:37:37;;;;;;;;;;;25.90;88.50;;;;;;5015506;28;19921;-70
2022/12/22 04:40:04;;;;;;;;;;;25.70;88.90;;;;;;5032414;28;20005;-72
2022/12/22 04:42:30;;;;;;;;;;;25.60;89.30;;;;;;5015966;28;19917;-70
2022/12/22 04:44:57;;;;;;;;;;;25.50;88.70;;;;;;5015205;28;19917;-70
2022/12/22 04:47:24;;;;;;;;;;;25.40;87.90;;;;;;5028663;28;19917;-70
2022/12/22 04:49:50;;;;;;;;;;;25.20;87.50;;;;;;5020317;28;19979;-70
2022/12/22 04:52:17;;;;;;;;;;;25.20;87.70;;;;;;5026866;28;19928;-70
2022/12/22 04:54:43;;;;;;;;;;;25.10;87.90;;;;;;5023929;28;19917;-70
2022/12/22 04:57:10;;;;;;;;;;;25.10;88.00;;;;;;5021693;28;20308;-70
2022/12/22 04:59:37;;;;;;;;;;;25.10;87.90;;;;;;5028674;28;19917;-70
2022/12/22 05:02:04;;;;;;;;;;;25.00;89.30;;;;;;5030047;28;19948;-70
2022/12/22 05:04:31;;;;;;;;;;;25.00;90.40;;;;;;5026644;28;19928;-70
2022/12/22 05:06:57;;;;;;;;;;;24.90;90.90;;;;;;5027106;28;19953;-70
2022/12/22 05:09:24;;;;;;;;;;;24.90;90.70;;;;;;5022829;28;19932;-70
2022/12/22 05:11:51;;;;;;;;;;;24.70;90.50;;;;;;5014963;28;19960;-70
2022/12/22 05:14:17;;;;;;;;;;;24.60;91.10;;;;;;5022589;28;20054;-70
2022/12/22 05:16:44;;;;;;;;;;;24.50;91.50;;;;;;5015372;28;20353;-71
2022/12/22 05:19:11;;;;;;;;;;;24.50;91.80;;;;;;5031994;28;19949;-70
2022/12/22 05:21:37;;;;;;;;;;;24.40;91.80;;;;;;5003811;28;19932;-71
2022/12/22 05:24:04;;;;;;;;;;;24.40;91.80;;;;;;5000254;28;19914;-69
2022/12/22 05:26:31;;;;;;;;;;;24.40;92.20;;;;;;5011665;28;20012;-69
2022/12/22 05:28:58;;;;;;;;;;;24.20;92.80;;;;;;5012194;28;19925;-70
2022/12/22 05:31:25;;;;;;;;;;;24.00;93.80;;;;;;5009368;28;19968;-70
2022/12/22 05:33:52;;;;;;;;;;;23.80;93.60;;;;;;5005824;28;19933;-70
2022/12/22 05:36:19;;;;;;;;;;;23.70;94.20;;;;;;5010064;28;19920;-69
2022/12/22 05:38:46;;;;;;;;;;;23.60;95.90;;;;;;5007566;28;20347;-69
2022/12/22 05:41:12;;;;;;;;;;;23.40;96.30;;;;;;5017433;28;19989;-71
2022/12/22 05:43:39;;;;;;;;;;;23.30;96.90;;;;;;5007072;28;19920;-70
2022/12/22 05:46:07;;;;;;;;;;;23.10;97.00;;;;;;5015105;28;19959;-68
2022/12/22 05:48:34;;;;;;;;;;;23.00;97.10;;;;;;5003311;28;19921;-68
2022/12/22 05:51:01;;;;;;;;;;;22.80;97.40;;;;;;4998308;28;20325;-70
2022/12/22 05:53:27;;;;;;;;;;;22.70;97.80;;;;;;4994986;28;20360;-70
2022/12/22 05:55:54;;;;;;;;;;;22.60;97.90;;;;;;5003722;28;20033;-71
2022/12/22 05:58:21;;;;;;;;;;;22.50;98.20;;;;;;5005874;28;19913;-69
2022/12/22 06:00:48;;;;;;;;;;;22.40;98.20;;;;;;5003002;28;19918;-69
2022/12/22 06:03:14;;;;;;;;;;;22.30;98.20;;;;;;4998956;28;19976;-69
2022/12/22 06:05:41;;;;;;;;;;;22.20;98.40;;;;;;5005057;28;19921;-69
2022/12/22 06:08:07;;;;;;;;;;;22.10;98.70;;;;;;5003677;28;19949;-69
2022/12/22 06:10:34;;;;;;;;;;;22.10;98.70;;;;;;5004975;28;20380;-69
2022/12/22 06:13:01;;;;;;;;;;;22.10;98.90;;;;;;5016364;28;19936;-69
2022/12/22 06:15:27;;;;;;;;;;;22.00;98.90;;;;;;4985703;28;19969;-68
2022/12/22 06:17:54;;;;;;;;;;;22.00;99.20;;;;;;5011312;28;19960;-69
2022/12/22 06:20:21;;;;;;;;;;;22.00;99.30;;;;;;5018075;28;19932;-70
2022/12/22 06:22:47;;;;;;;;;;;22.00;99.80;;;;;;5022601;28;20030;-70
2022/12/22 06:25:14;;;;;;;;;;;22.00;99.90;;;;;;5025470;28;20090;-71
2022/12/22 06:27:41;;;;;;;;;;;22.00;99.90;;;;;;5016113;28;20358;-70
2022/12/22 06:30:08;;;;;;;;;;;22.00;99.90;;;;;;5025691;28;20057;-70
2022/12/22 06:32:38;;;;;;;;;;;21.90;99.90;;;;;;5023402;28;19932;-71
2022/12/22 06:35:05;;;;;;;;;;;21.90;99.90;;;;;;5009792;28;19924;-70
2022/12/22 06:37:32;;;;;;;;;;;21.80;99.90;;;;;;5025773;28;20276;-71
2022/12/22 06:39:59;;;;;;;;;;;21.70;99.90;;;;;;5017069;28;20031;-70
2022/12/22 06:45:10;;;;;;;;;;;21.70;99.90;;;;;;5028049;28;19970;-73
2022/12/22 06:47:37;;;;;;;;;;;21.60;99.90;;;;;;5023350;28;20038;-70
2022/12/22 06:50:03;;;;;;;;;;;21.60;99.90;;;;;;5019927;28;19920;-70
2022/12/22 06:52:30;;;;;;;;;;;21.50;99.90;;;;;;5024597;28;20380;-71
2022/12/22 06:54:57;;;;;;;;;;;21.40;99.90;;;;;;5031917;28;19924;-72
2022/12/22 06:57:25;;;;;;;;;;;21.40;99.90;;;;;;5026872;28;19967;-71
2022/12/22 06:59:51;;;;;;;;;;;21.30;99.90;;;;;;5023549;28;19921;-72
2022/12/22 07:02:18;;;;;;;;;;;21.30;99.90;;;;;;5031274;28;19920;-72
2022/12/22 07:04:45;;;;;;;;;;;21.30;99.90;;;;;;5032125;28;19920;-72
2022/12/22 07:07:14;;;;;;;;;;;21.20;99.90;;;;;;5025112;28;19913;-71
2022/12/22 07:09:41;;;;;;;;;;;21.10;99.90;;;;;;5019505;28;19922;-71
2022/12/22 07:12:08;;;;;;;;;;;21.00;99.90;;;;;;5029872;28;19920;-69
2022/12/22 07:14:34;;;;;;;;;;;20.90;99.90;;;;;;5028307;28;19983;-70
2022/12/22 07:17:01;;;;;;;;;;;20.80;99.90;;;;;;5027851;28;20688;-71
2022/12/22 07:19:28;;;;;;;;;;;20.80;99.90;;;;;;5031842;28;19913;-72
2022/12/22 07:21:54;;;;;;;;;;;20.70;99.90;;;;;;5030345;28;19971;-72
2022/12/22 07:24:24;;;;;;;;;;;20.60;99.90;;;;;;5024416;28;19910;-70
2022/12/22 07:26:51;;;;;;;;;;;20.50;99.90;;;;;;5039217;28;19960;-70
2022/12/22 07:29:18;;;;;;;;;;;20.40;99.90;;;;;;5031524;28;19917;-71
2022/12/22 07:31:44;;;;;;;;;;;20.30;99.90;;;;;;5035544;28;19948;-70
2022/12/22 07:34:11;;;;;;;;;;;20.30;99.90;;;;;;5030251;28;19917;-70
2022/12/22 07:36:38;;;;;;;;;;;20.20;99.90;;;;;;5042260;28;19962;-71
2022/12/22 07:39:04;;;;;;;;;;;20.20;99.90;;;;;;5030642;28;19993;-67
2022/12/22 07:44:15;;;;;;;;;;;20.10;99.90;;;;;;5027319;28;19920;-69
2022/12/22 07:46:42;;;;;;;;;;;20.20;99.90;;;;;;5032721;28;19914;-68
2022/12/22 07:51:56;;;;;;;;;;;20.10;99.90;;;;;;5022897;28;19920;-71
2022/12/22 07:54:23;;;;;;;;;;;20.00;99.90;;;;;;5028029;28;19917;-71
2022/12/22 07:56:49;;;;;;;;;;;19.90;99.90;;;;;;5021806;28;20004;-72
2022/12/22 07:59:16;;;;;;;;;;;19.90;99.90;;;;;;5030420;28;19963;-71
2022/12/22 08:01:44;;;;;;;;;;;19.80;99.90;;;;;;5030883;28;20418;-71
2022/12/22 08:04:11;;;;;;;;;;;19.80;99.90;;;;;;5030465;28;19917;-71
2022/12/22 08:06:38;;;;;;;;;;;19.70;99.90;;;;;;5036033;28;19928;-70
2022/12/22 08:09:05;;;;;;;;;;;19.70;99.90;;;;;;5030368;28;19923;-71
2022/12/22 08:11:32;;;;;;;;;;;19.60;99.90;;;;;;5028401;28;19913;-72
2022/12/22 08:13:59;;;;;;;;;;;19.60;99.90;;;;;;5029722;28;19928;-70
2022/12/22 08:16:26;;;;;;;;;;;19.60;99.90;;;;;;5032115;28;19995;-71
2022/12/22 08:18:52;;;;;;;;;;;19.50;99.90;;;;;;5026168;28;20011;-70
2022/12/22 08:21:19;;;;;;;;;;;19.50;99.90;;;;;;5020277;28;19925;-69
2022/12/22 08:23:46;;;;;;;;;;;19.50;99.90;;;;;;5031418;28;20330;-71
2022/12/22 08:26:19;;;;;;;;;;;19.50;99.90;;;;;;5028425;28;19920;-70
2022/12/22 08:28:48;;;;;;;;;;;19.50;99.90;;;;;;5029264;28;20363;-70
2022/12/22 08:31:15;;;;;;;;;;;19.50;99.90;;;;;;5030252;28;20024;-70
2022/12/22 08:33:42;;;;;;;;;;;19.40;99.90;;;;;;5033660;28;19921;-70
2022/12/22 08:36:09;;;;;;;;;;;19.40;99.90;;;;;;5027934;28;19920;-71
2022/12/22 08:38:37;;;;;;;;;;;19.40;99.90;;;;;;5032378;28;19947;-71
2022/12/22 08:41:04;;;;;;;;;;;19.40;99.90;;;;;;5028485;28;19909;-71
2022/12/22 08:43:32;;;;;;;;;;;19.40;99.90;;;;;;5023451;28;19921;-70
2022/12/22 08:45:58;;;;;;;;;;;19.30;99.90;;;;;;5031655;28;19917;-70
2022/12/22 08:48:25;;;;;;;;;;;19.30;99.90;;;;;;5013991;28;19979;-71
2022/12/22 08:50:52;;;;;;;;;;;19.20;99.90;;;;;;5030514;28;19983;-71
2022/12/22 08:53:18;;;;;;;;;;;19.20;99.90;;;;;;5023183;28;19932;-71
2022/12/22 08:55:52;;;;;;;;;;;19.10;99.90;;;;;;5033552;28;19913;-73
2022/12/22 08:58:19;;;;;;;;;;;19.20;99.90;;;;;;5022333;28;19980;-71
2022/12/22 09:00:46;;;;;;;;;;;19.10;99.90;;;;;;5028083;28;20387;-71
2022/12/22 09:03:13;;;;;;;;;;;19.10;99.90;;;;;;5028374;28;19921;-71
2022/12/22 09:05:40;;;;;;;;;;;19.10;99.90;;;;;;5029909;28;19920;-71
2022/12/22 09:08:07;;;;;;;;;;;19.10;99.90;;;;;;5026593;28;19990;-71
2022/12/22 09:10:34;;;;;;;;;;;19.00;99.90;;;;;;5029507;28;19921;-66
2022/12/22 09:13:00;;;;;;;;;;;19.00;99.90;;;;;;5031133;28;20299;-71
2022/12/22 09:15:27;;;;;;;;;;;19.00;99.90;;;;;;5029848;28;19954;-69
2022/12/22 09:17:54;;;;;;;;;;;18.80;99.90;;;;;;5028251;28;20004;-70
2022/12/22 09:20:20;;;;;;;;;;;18.80;99.90;;;;;;5020869;28;20016;-70
2022/12/22 09:22:47;;;;;;;;;;;18.80;99.90;;;;;;5024435;28;20512;-69
2022/12/22 09:25:16;;;;;;;;;;;18.80;99.90;;;;;;5019758;28;19975;-69
2022/12/22 09:27:43;;;;;;;;;;;18.70;99.90;;;;;;5034552;28;20286;-70
2022/12/22 09:30:10;;;;;;;;;;;18.70;99.90;;;;;;5020323;28;20015;-70
2022/12/22 09:32:36;;;;;;;;;;;18.70;99.90;;;;;;5021678;28;19921;-71
2022/12/22 09:35:03;;;;;;;;;;;18.60;99.90;;;;;;5020320;28;19921;-72
2022/12/22 09:37:29;;;;;;;;;;;18.60;99.90;;;;;;5024449;28;19920;-70
2022/12/22 09:39:56;;;;;;;;;;;18.60;99.90;;;;;;5030767;28;20306;-70
2022/12/22 09:42:23;;;;;;;;;;;18.50;99.90;;;;;;5019331;28;19916;-70
2022/12/22 09:44:50;;;;;;;;;;;18.50;99.90;;;;;;5018656;28;19928;-70
2022/12/22 09:47:20;;;;;;;;;;;18.40;99.90;;;;;;5032855;28;19920;-70
2022/12/22 09:49:46;;;;;;;;;;;18.30;99.90;;;;;;5017566;28;19965;-70
2022/12/22 09:52:39;;;;;;;;;;;18.30;99.90;;;;;;5027164;28;19939;-70
2022/12/22 09:55:25;;;;;;;;;;;18.20;99.90;;;;;;5019179;28;19917;-70
2022/12/22 09:57:55;;;;;;;;;;;18.20;99.90;;;;;;5022031;28;19944;-71
2022/12/22 10:00:26;;;;;;;;;;;18.10;99.90;;;;;;5026516;28;19913;-70
2022/12/22 10:02:56;;;;;;;;;;;18.10;99.90;;;;;;5027039;28;19913;-70
2022/12/22 10:05:27;;;;;;;;;;;18.10;99.90;;;;;;5031736;28;19920;-71
2022/12/22 10:07:58;;;;;;;;;;;18.10;99.90;;;;;;5017037;28;19919;-70
2022/12/22 10:10:27;;;;;;;;;;;18.00;99.90;;;;;;5030038;28;19927;-69
2022/12/22 10:12:54;;;;;;;;;;;18.00;99.90;;;;;;5028054;28;20360;-69
2022/12/22 10:15:36;;;;;;;;;;;18.00;99.90;;;;;;5034870;28;19913;-69
2022/12/22 10:18:13;;;;;;;;;;;18.00;99.90;;;;;;5014322;28;19920;-70
2022/12/22 10:20:41;;;;;;;;;;;18.00;99.90;;;;;;5028402;28;20016;-71
2022/12/22 10:23:19;;;;;;;;;;;17.90;99.90;;;;;;5023559;28;20444;-70
2022/12/22 10:26:07;;;;;;;;;;;17.90;99.90;;;;;;5035401;28;19924;-70
2022/12/22 10:28:56;;;;;;;;;;;17.90;99.90;;;;;;5025327;28;19913;-70
2022/12/22 10:31:25;;;;;;;;;;;17.90;99.90;;;;;;5022053;28;20352;-69
2022/12/22 10:33:53;;;;;;;;;;;17.90;99.90;;;;;;5025681;28;19924;-69
2022/12/22 10:36:24;;;;;;;;;;;17.80;99.90;;;;;;5034713;28;20399;-69
2022/12/22 10:39:01;;;;;;;;;;;17.80;99.90;;;;;;5028785;28;19916;-69
2022/12/22 10:41:30;;;;;;;;;;;17.80;99.90;;;;;;5027358;28;19917;-69
2022/12/22 10:43:58;;;;;;;;;;;17.80;99.90;;;;;;5029595;28;19917;-69
2022/12/22 10:46:36;;;;;;;;;;;17.70;99.90;;;;;;5036787;28;19917;-69
2022/12/22 10:49:10;;;;;;;;;;;17.70;99.90;;;;;;5026679;28;20713;-70
2022/12/22 10:51:37;;;;;;;;;;;17.70;99.90;;;;;;5037555;28;19928;-70
2022/12/22 10:54:04;;;;;;;;;;;17.70;99.90;;;;;;5035238;28;20380;-71
2022/12/22 10:56:31;;;;;;;;;;;17.70;99.90;;;;;;5034157;28;20354;-70
2022/12/22 10:59:01;;;;;;;;;;;17.70;99.90;;;;;;5027273;28;20319;-70
2022/12/22 11:01:31;;;;;;;;;;;17.70;99.90;;;;;;5037981;28;19913;-70
2022/12/22 11:04:14;;;;;;;;;;;17.70;99.90;;;;;;5039281;28;19913;-70
2022/12/22 11:06:43;;;;;;;;;;;17.70;99.90;;;;;;5017780;28;19914;-68
2022/12/22 11:09:13;;;;;;;;;;;17.80;99.90;;;;;;5024279;28;19913;-69
2022/12/22 11:11:50;;;;;;;;;;;17.70;99.90;;;;;;5031174;28;20012;-69
2022/12/22 11:14:27;;;;;;;;;;;17.80;99.90;;;;;;5030983;28;20361;-70
2022/12/22 11:17:02;;;;;;;;;;;17.70;99.90;;;;;;5024523;28;19996;-69
2022/12/22 11:19:46;;;;;;;;;;;17.70;99.90;;;;;;5020092;28;20516;-70
2022/12/22 11:22:37;;;;;;;;;;;17.70;99.90;;;;;;5009080;28;20017;-70
2022/12/22 11:25:07;;;;;;;;;;;17.70;99.90;;;;;;5010641;28;19914;-69
2022/12/22 11:28:01;;;;;;;;;;;17.70;99.90;;;;;;5018251;28;19956;-70
2022/12/22 11:30:33;;;;;;;;;;;17.70;99.90;;;;;;5011159;28;19922;-70
2022/12/22 11:33:15;;;;;;;;;;;17.70;99.90;;;;;;5003523;28;19918;-69
2022/12/22 11:35:44;;;;;;;;;;;17.80;99.90;;;;;;5013474;28;19921;-70
2022/12/22 11:38:17;;;;;;;;;;;17.80;99.90;;;;;;5002477;28;19918;-72
2022/12/22 11:40:47;;;;;;;;;;;17.80;99.90;;;;;;5010283;28;20256;-71
2022/12/22 11:43:19;;;;;;;;;;;17.70;99.90;;;;;;5009624;28;19918;-70
2022/12/22 11:46:04;;;;;;;;;;;17.70;99.90;;;;;;5012603;28;19976;-69
2022/12/22 11:48:43;;;;;;;;;;;17.60;99.90;;;;;;5018942;28;19918;-70
2022/12/22 11:51:24;;;;;;;;;;;17.60;99.90;;;;;;5011258;28;19924;-70
2022/12/22 11:53:53;;;;;;;;;;;17.60;99.90;;;;;;5005686;28;19918;-69
2022/12/22 11:56:39;;;;;;;;;;;17.50;99.90;;;;;;5005944;28;19914;-70
2022/12/22 11:59:14;;;;;;;;;;;17.50;99.90;;;;;;5005986;28;20528;-71
2022/12/22 12:01:59;;;;;;;;;;;17.40;99.90;;;;;;5005388;28;20451;-70
2022/12/22 12:04:26;;;;;;;;;;;17.40;99.90;;;;;;5009022;28;20426;-70
2022/12/22 12:06:58;;;;;;;;;;;17.30;99.90;;;;;;5007718;28;19917;-70
2022/12/22 12:09:43;;;;;;;;;;;17.30;99.90;;;;;;5013057;28;19960;-70
2022/12/22 12:12:19;;;;;;;;;;;17.30;99.90;;;;;;5003534;28;19918;-70
2022/12/22 12:14:57;;;;;;;;;;;17.30;99.90;;;;;;5008978;28;19913;-69
2022/12/22 12:17:42;;;;;;;;;;;17.20;99.90;;;;;;5005451;28;19952;-71
2022/12/22 12:20:18;;;;;;;;;;;17.20;99.90;;;;;;5011521;28;19944;-68
2022/12/22 12:22:51;;;;;;;;;;;17.20;99.90;;;;;;5004806;28;19976;-71
2022/12/22 12:25:18;;;;;;;;;;;17.20;99.90;;;;;;5007745;28;20363;-69
2022/12/22 12:27:51;;;;;;;;;;;17.20;99.90;;;;;;4995968;28;19915;-69
2022/12/22 12:30:18;;;;;;;;;;;17.20;99.90;;;;;;5010953;28;19924;-71
2022/12/22 12:32:45;;;;;;;;;;;17.10;99.90;;;;;;5015362;28;19922;-69
2022/12/22 12:35:30;;;;;;;;;;;17.10;99.90;;;;;;5001902;28;20023;-69
2022/12/22 12:38:01;;;;;;;;;;;17.10;99.90;;;;;;5020390;28;19913;-69
2022/12/22 12:40:31;;;;;;;;;;;17.10;99.90;;;;;;5003382;28;20372;-69
2022/12/22 12:42:58;;;;;;;;;;;17.00;99.90;;;;;;5010512;28;19921;-69
2022/12/22 12:45:44;;;;;;;;;;;17.00;99.90;;;;;;5011092;28;20016;-69
2022/12/22 12:48:20;;;;;;;;;;;17.00;99.90;;;;;;5002918;28;19917;-71
2022/12/22 12:50:50;;;;;;;;;;;17.00;99.90;;;;;;5008225;28;19917;-69
2022/12/22 12:53:17;;;;;;;;;;;17.00;99.90;;;;;;4999162;28;19926;-69
2022/12/22 12:55:51;;;;;;;;;;;17.00;99.90;;;;;;5011443;28;19947;-71
2022/12/22 12:58:39;;;;;;;;;;;17.00;99.90;;;;;;4998661;28;19917;-69
2022/12/22 13:01:08;;;;;;;;;;;17.00;99.90;;;;;;5010068;28;20387;-69
2022/12/22 13:03:37;;;;;;;;;;;17.00;99.90;;;;;;5005180;28;20364;-70
2022/12/22 13:06:05;;;;;;;;;;;17.00;99.90;;;;;;5000013;28;19955;-70
2022/12/22 13:08:33;;;;;;;;;;;17.10;99.90;;;;;;5004892;28;20008;-69
2022/12/22 13:10:59;;;;;;;;;;;17.10;99.90;;;;;;5006210;28;19914;-69
2022/12/22 13:13:26;;;;;;;;;;;17.20;99.90;;;;;;5017406;28;20384;-69
2022/12/22 13:15:59;;;;;;;;;;;17.20;99.90;;;;;;5007961;28;19948;-69
2022/12/22 13:18:27;;;;;;;;;;;17.20;99.90;;;;;;5006797;28;19945;-69
2022/12/22 13:21:08;;;;;;;;;;;17.20;99.90;;;;;;5009508;28;20600;-69
2022/12/22 13:23:35;;;;;;;;;;;17.20;99.90;;;;;;5007839;28;19918;-70
2022/12/22 13:26:19;;;;;;;;;;;17.20;99.90;;;;;;4997309;28;19914;-70
2022/12/22 13:29:06;;;;;;;;;;;17.20;99.90;;;;;;4993232;28;19921;-68
2022/12/22 13:31:42;;;;;;;;;;;17.30;99.90;;;;;;4994391;28;20048;-70
2022/12/22 13:34:29;;;;;;;;;;;17.20;99.90;;;;;;5006587;28;19922;-71
2022/12/22 13:36:57;;;;;;;;;;;17.20;99.90;;;;;;5004992;28;19913;-71
2022/12/22 13:39:24;;;;;;;;;;;17.30;99.90;;;;;;5000219;28;20356;-72
2022/12/22 13:41:51;;;;;;;;;;;17.20;99.90;;;;;;5008460;28;19913;-71
2022/12/22 13:44:20;;;;;;;;;;;17.20;99.90;;;;;;5005508;28;19917;-71
2022/12/22 13:46:47;;;;;;;;;;;17.30;99.90;;;;;;4999261;28;19922;-71
2022/12/22 13:49:15;;;;;;;;;;;17.20;99.90;;;;;;4983424;28;19922;-70
2022/12/22 13:51:42;;;;;;;;;;;17.30;99.90;;;;;;5002231;28;19954;-71
2022/12/22 13:54:09;;;;;;;;;;;17.30;99.90;;;;;;4999220;28;20084;-72
2022/12/22 13:56:55;;;;;;;;;;;17.30;99.90;;;;;;5001760;28;19953;-71
2022/12/22 13:59:31;;;;;;;;;;;17.30;99.90;;;;;;4989359;28;20367;-71
2022/12/22 14:01:59;;;;;;;;;;;17.20;99.90;;;;;;5011474;28;19919;-70
2022/12/22 14:04:26;;;;;;;;;;;17.20;99.90;;;;;;5011052;28;20360;-72
2022/12/22 14:06:53;;;;;;;;;;;17.20;99.90;;;;;;5010350;28;19964;-69
2022/12/22 14:09:25;;;;;;;;;;;17.20;99.90;;;;;;5010110;28;20645;-72
2022/12/22 14:11:56;;;;;;;;;;;17.20;99.90;;;;;;5018803;28;19921;-70
2022/12/22 14:14:25;;;;;;;;;;;17.10;99.90;;;;;;5012943;28;20011;-69
2022/12/22 14:16:53;;;;;;;;;;;17.20;99.90;;;;;;5012304;28;19920;-70
2022/12/22 14:19:21;;;;;;;;;;;17.20;99.90;;;;;;5003192;28;20457;-70
2022/12/22 14:21:50;;;;;;;;;;;17.20;99.90;;;;;;5025892;28;20011;-70
2022/12/22 14:24:20;;;;;;;;;;;17.20;99.90;;;;;;5027665;28;19913;-70
2022/12/22 14:26:47;;;;;;;;;;;17.20;99.90;;;;;;5031208;28;19922;-72
2022/12/22 14:29:16;;;;;;;;;;;17.20;99.90;;;;;;5031370;28;19956;-71
2022/12/22 14:31:52;;;;;;;;;;;17.20;99.90;;;;;;5035298;28;19945;-71
2022/12/22 14:34:26;;;;;;;;;;;17.20;99.90;;;;;;5030403;28;20300;-72
2022/12/22 14:36:52;;;;;;;;;;;17.20;99.90;;;;;;5031262;28;20004;-72
2022/12/22 14:39:30;;;;;;;;;;;17.30;99.90;;;;;;5031394;28;19917;-72
2022/12/22 14:42:01;;;;;;;;;;;17.30;99.90;;;;;;5030627;28;19979;-71
2022/12/22 14:44:55;;;;;;;;;;;17.30;99.90;;;;;;5024874;28;20268;-72
2022/12/22 14:47:24;;;;;;;;;;;17.30;99.90;;;;;;5030145;28;19917;-71
2022/12/22 14:50:03;;;;;;;;;;;17.30;99.90;;;;;;5032012;28;21272;-70
2022/12/22 14:52:32;;;;;;;;;;;17.30;99.90;;;;;;5033597;28;19932;-70
2022/12/22 14:54:58;;;;;;;;;;;17.30;99.90;;;;;;5033845;28;20360;-70
2022/12/22 14:57:43;;;;;;;;;;;17.30;99.90;;;;;;5032689;28;19919;-71
2022/12/22 15:00:10;;;;;;;;;;;17.30;99.90;;;;;;5029587;28;19920;-71
2022/12/22 15:02:38;;;;;;;;;;;17.30;99.90;;;;;;5031788;28;19935;-71
2022/12/22 15:05:34;;;;;;;;;;;17.20;99.90;;;;;;5025832;28;19918;-70
2022/12/22 15:08:01;;;;;;;;;;;17.20;99.90;;;;;;5014210;28;20256;-71
2022/12/22 15:10:33;;;;;;;;;;;17.10;99.90;;;;;;5029973;28;19924;-70
2022/12/22 15:13:03;;;;;;;;;;;17.10;99.90;;;;;;5026739;28;19921;-71
2022/12/22 15:15:30;;;;;;;;;;;17.00;99.90;;;;;;5028014;28;19916;-72
2022/12/22 15:17:57;;;;;;;;;;;16.90;99.90;;;;;;5027500;28;19923;-72
2022/12/22 15:20:25;;;;;;;;;;;16.80;99.90;;;;;;5023504;28;19999;-70
2022/12/22 15:22:52;;;;;;;;;;;16.80;99.90;;;;;;5006768;28;19914;-72
2022/12/22 15:25:19;;;;;;;;;;;16.70;99.90;;;;;;5010856;28;20733;-71
2022/12/22 15:27:46;;;;;;;;;;;16.70;99.90;;;;;;5001418;28;20000;-69
2022/12/22 15:30:14;;;;;;;;;;;16.70;99.90;;;;;;5000319;28;19922;-71
2022/12/22 15:32:41;;;;;;;;;;;16.60;99.90;;;;;;5000605;28;19925;-71
2022/12/22 15:35:31;;;;;;;;;;;16.60;99.90;;;;;;5004571;28;20460;-69
2022/12/22 15:37:58;;;;;;;;;;;16.60;99.90;;;;;;4993962;28;19917;-69
2022/12/22 15:40:25;;;;;;;;;;;16.60;99.90;;;;;;5010705;28;19917;-69
2022/12/22 15:42:51;;;;;;;;;;;16.60;99.90;;;;;;5004516;28;20283;-71
2022/12/22 15:45:19;;;;;;;;;;;16.60;99.90;;;;;;5006772;28;19920;-69
2022/12/22 15:47:48;;;;;;;;;;;16.70;99.90;;;;;;5003385;28;19925;-71
2022/12/22 15:50:16;;;;;;;;;;;16.70;99.90;;;;;;5006615;28;19933;-70
2022/12/22 15:52:54;;;;;;;;;;;16.80;99.90;;;;;;5011030;28;20371;-71
2022/12/22 15:55:20;;;;;;;;;;;16.80;99.90;;;;;;4997951;28;19940;-72
2022/12/22 15:57:50;;;;;;;;;;;16.80;99.90;;;;;;5011280;28;19922;-70
2022/12/22 16:00:17;;;;;;;;;;;16.80;99.90;;;;;;4992652;28;19972;-70
2022/12/22 16:02:44;;;;;;;;;;;16.80;99.90;;;;;;5010632;28;20256;-69
2022/12/22 16:05:11;;;;;;;;;;;16.70;99.90;;;;;;5006321;28;19914;-70
2022/12/22 16:07:39;;;;;;;;;;;16.80;99.90;;;;;;5004672;28;20331;-70
2022/12/22 16:10:07;;;;;;;;;;;16.70;99.90;;;;;;5008617;28;19913;-70
2022/12/22 16:12:36;;;;;;;;;;;16.80;99.90;;;;;;5008897;28;20272;-69
2022/12/22 16:15:03;;;;;;;;;;;16.70;99.90;;;;;;5010591;28;19976;-71
2022/12/22 16:17:31;;;;;;;;;;;16.80;99.90;;;;;;5010744;28;19922;-70
2022/12/22 16:19:59;;;;;;;;;;;16.80;99.90;;;;;;5012568;28;20339;-69
2022/12/22 16:22:30;;;;;;;;;;;16.80;99.90;;;;;;5004307;28;19923;-70
2022/12/22 16:24:57;;;;;;;;;;;16.80;99.90;;;;;;5002646;28;19964;-69
2022/12/22 16:27:24;;;;;;;;;;;16.90;99.90;;;;;;5001202;28;19913;-71
2022/12/22 16:29:51;;;;;;;;;;;16.90;99.90;;;;;;5011295;28;19917;-70
2022/12/22 16:32:24;;;;;;;;;;;16.90;99.90;;;;;;5006532;28;19929;-70
2022/12/22 16:34:52;;;;;;;;;;;16.90;99.90;;;;;;5002779;28;19918;-67
2022/12/22 16:37:18;;;;;;;;;;;16.90;99.90;;;;;;4998052;28;19918;-72
2022/12/22 16:39:46;;;;;;;;;;;16.90;99.90;;;;;;5006185;28;19920;-71
2022/12/22 16:42:14;;;;;;;;;;;16.90;99.90;;;;;;4997414;28;19913;-69
2022/12/22 16:44:41;;;;;;;;;;;16.90;99.90;;;;;;5005356;28;19968;-69
2022/12/22 16:47:20;;;;;;;;;;;16.90;99.90;;;;;;4998885;28;20734;-71
2022/12/22 16:49:47;;;;;;;;;;;16.90;99.90;;;;;;5006710;28;19918;-69
2022/12/22 16:52:22;;;;;;;;;;;16.90;99.90;;;;;;5007970;28;19929;-74
2022/12/22 16:54:50;;;;;;;;;;;16.90;99.90;;;;;;5005532;28;20631;-71
2022/12/22 16:57:16;;;;;;;;;;;16.90;99.90;;;;;;4999180;28;19913;-71
2022/12/22 16:59:43;;;;;;;;;;;16.90;99.90;;;;;;5007357;28;20324;-70
2022/12/22 17:02:35;;;;;;;;;;;16.90;99.90;;;;;;5006300;28;20004;-67
2022/12/22 17:05:02;;;;;;;;;;;17.00;99.90;;;;;;4992866;28;19913;-70
2022/12/22 17:07:31;;;;;;;;;;;17.00;99.90;;;;;;5002532;28;19948;-71
2022/12/22 17:10:03;;;;;;;;;;;16.90;99.90;;;;;;5008842;28;19924;-70
2022/12/22 17:12:32;;;;;;;;;;;16.90;99.90;;;;;;5001884;28;19921;-69
2022/12/22 17:14:59;;;;;;;;;;;16.90;99.90;;;;;;5011622;28;19914;-72
2022/12/22 17:17:26;;;;;;;;;;;16.90;99.90;;;;;;5010372;28;20047;-69
2022/12/22 17:19:53;;;;;;;;;;;16.90;99.90;;;;;;5005330;28;19991;-71
2022/12/22 17:22:21;;;;;;;;;;;16.90;99.90;;;;;;5009008;28;19914;-70
2022/12/22 17:24:49;;;;;;;;;;;16.90;99.90;;;;;;5008387;28;19913;-70
2022/12/22 17:27:17;;;;;;;;;;;16.90;99.90;;;;;;5011241;28;20012;-69
2022/12/22 17:29:44;;;;;;;;;;;16.90;99.90;;;;;;5004760;28;19921;-70
2022/12/22 17:32:12;;;;;;;;;;;16.90;99.90;;;;;;5006408;28;19965;-70
2022/12/22 17:34:39;;;;;;;;;;;16.90;99.90;;;;;;5007231;28;20390;-71
2022/12/22 17:37:12;;;;;;;;;;;17.00;99.90;;;;;;5010783;28;19914;-71
2022/12/22 17:39:38;;;;;;;;;;;16.90;99.90;;;;;;5005419;28;19937;-70
2022/12/22 17:42:14;;;;;;;;;;;16.90;99.90;;;;;;5009535;28;19921;-71
2022/12/22 17:44:40;;;;;;;;;;;16.90;99.90;;;;;;5009069;28;19918;-69
2022/12/22 17:47:09;;;;;;;;;;;16.90;99.90;;;;;;5007438;28;19944;-71
2022/12/22 17:49:36;;;;;;;;;;;16.90;99.90;;;;;;5006155;28;20339;-71
2022/12/22 17:52:02;;;;;;;;;;;16.90;99.90;;;;;;5004233;28;20372;-71
2022/12/22 17:54:29;;;;;;;;;;;16.90;99.90;;;;;;4997385;28;19921;-70
2022/12/22 17:56:59;;;;;;;;;;;17.00;99.90;;;;;;5008460;28;20253;-71
2022/12/22 17:59:26;;;;;;;;;;;17.00;99.90;;;;;;5006586;28;19921;-71
2022/12/22 18:01:52;;;;;;;;;;;17.00;99.90;;;;;;5003290;28;19979;-70
2022/12/22 18:04:19;;;;;;;;;;;17.00;99.90;;;;;;5004587;28;19968;-71
2022/12/22 18:06:46;;;;;;;;;;;17.00;99.90;;;;;;5004126;28;19913;-70
2022/12/22 18:09:19;;;;;;;;;;;17.00;99.90;;;;;;5005027;28;19976;-68
2022/12/22 18:11:46;;;;;;;;;;;17.10;99.90;;;;;;5007330;28;20438;-71
2022/12/22 18:14:14;;;;;;;;;;;17.00;99.90;;;;;;5009912;28;19925;-71